Aérodrome :
LOGIN :

S'inscrire | Disclaimer

   EN    FR    IT 

 










Légende :    VFR   VFR Marginal   IFR   IFR Intensif   IFR Très Intensif
Visi : 
Plafond : 
>= 8 km
>= 3000ft
5 à 8 km
1000 à 3000 ft
1500m à 5 km
500 à 1000 ft
800 à 1500m
200 à 500 ft
< 800m
< 200 ft
Symboles :   Orages  Brouillard  Fortes neiges  Fortes précipitations  Vent > 20 kt
SIGMETs :   Divers  Orages  Givrage  Turbulence  Onde Orograph.  Cendres Volcan.







- Altitude de l'aérodrome : 141 ft
- Code IATA : SKS


EKSP - Srydstrup Vojens

DERNIER METAR :
  • 160850Z 21010KT CAVOK 06/02 Q1020 RMK SCT250

METARs EXPIRÉS :
  • 160820Z 21010KT CAVOK 05/02 Q1020 RMK SCT250
  • 160750Z 21008KT CAVOK 04/01 Q1020 RMK FEW250
  • 160720Z 21006KT CAVOK 03/01 Q1020 RMK FEW250
  • 160650Z 20006KT CAVOK 03/00 Q1020
  • 160620Z 20008KT CAVOK 03/00 Q1020
  • 160550Z 21008KT CAVOK 03/00 Q1020 RMK SKC

TAF TAF EKSP
Valide du 16 à 09h jusqu'au 17 à 06h UTC


160807Z 1609/1706 20015KT 9999 SCT030
PROB40 1609/1612 7000
BECMG 1610/1613 24012G25KT
TEMPO 1612/1619 4000 BR BKN008
BECMG 1613/1616 25010KT
TEMPO 1619/1706 0600 FG BKN002
Pas de NOTAMs connus pour ce terrain.



MET'MAP, la Météo Aéronautique d'un coup d'oeil ! - Copyright ORBIFLY Décembre 2007 - Disclaimer

ORBIFLY MET'MAP TEAM :

Programmation & Développement : Alexandra Zaïnal
Conception & Développement : Baudouin d'Aumeries
Co-Programmation & Développement : Marc-Olivier Méhu
Soutien technique & logistique : Manuel Goepfert

Contact : metmap@orbifly.com




SOURCES & CREDITS :

   NOAA